Time;durP1;ratioP1;P1;durP2;ratioP2;P2;SDS_P1;SDS_P2;PMS_P1;PMS_P2;Temp;Humidity;BMP_temperature;BMP_pressure;BME280_temperature;BME280_humidity;BME280_pressure;Samples;Min_cycle;Max_cycle;Signal;HPM_P1;HPM_P2
2023/06/04 00:05:39;;;;;;;7.95;3.65;;;;;;;;;;4974761;28;20090;-77
2023/06/04 00:08:24;;;;;;;;;;;;;;;;;;;;;
2023/06/04 00:11:23;;;;;;;5.82;2.85;;;;;;;;;;4999048;22;20030;-78
2023/06/04 00:13:49;;;;;;;5.15;2.55;;;;;;;;;;4923767;28;20045;-79
2023/06/04 00:16:14;;;;;;;6.38;2.45;;;;;;;;;;4973836;28;20035;-78
2023/06/04 00:18:40;;;;;;;6.45;2.42;;;;;;;;;;4973742;28;20551;-78
2023/06/04 00:21:05;;;;;;;9.82;2.88;;;;;;;;;;4973371;28;20050;-78
2023/06/04 00:23:31;;;;;;;9.38;2.75;;;;;;;;;;4954927;28;20114;-79
2023/06/04 00:25:56;;;;;;;6.40;2.25;;;;;;;;;;4951516;29;20035;-78
2023/06/04 00:28:22;;;;;;;5.35;2.58;;;;;;;;;;4951223;29;20548;-77
2023/06/04 00:30:47;;;;;;;5.85;2.10;;;;;;;;;;4954073;29;20504;-78
2023/06/04 00:33:13;;;;;;;7.57;2.60;;;;;;;;;;4936847;29;20027;-77
2023/06/04 00:35:38;;;;;;;5.45;2.67;;;;;;;;;;4954081;29;20078;-78
2023/06/04 00:38:04;;;;;;;9.45;2.75;;;;;;;;;;4954079;29;20436;-78
2023/06/04 00:40:29;;;;;;;5.05;2.42;;;;;;;;;;4953749;29;20448;-79
2023/06/04 00:42:55;;;;;;;5.88;2.35;;;;;;;;;;4946004;28;20030;-79
2023/06/04 00:45:21;;;;;;;6.68;2.50;;;;;;;;;;4953851;29;20039;-76
2023/06/04 00:47:46;;;;;;;5.43;2.60;;;;;;;;;;4937011;29;20388;-77
2023/06/04 00:50:13;;;;;;;5.70;2.50;;;;;;;;;;4936795;29;20098;-78
2023/06/04 00:52:38;;;;;;;5.63;2.60;;;;;;;;;;4953737;29;20493;-77
2023/06/04 00:55:04;;;;;;;6.35;2.30;;;;;;;;;;4936714;29;20038;-77
2023/06/04 00:57:30;;;;;;;4.97;2.40;;;;;;;;;;4936690;29;20035;-78
2023/06/04 00:59:55;;;;;;;5.72;2.40;;;;;;;;;;4931784;29;20027;-78
2023/06/04 01:02:22;;;;;;;5.45;2.25;;;;;;;;;;4936831;29;20035;-78
2023/06/04 01:05:00;;;;;;;6.28;2.40;;;;;;;;;;4953763;29;20035;-78
2023/06/04 01:07:28;;;;;;;5.28;2.10;;;;;;;;;;4954135;29;20587;-78
2023/06/04 01:09:54;;;;;;;6.53;2.20;;;;;;;;;;4936949;29;20485;-78
2023/06/04 01:12:20;;;;;;;4.93;2.40;;;;;;;;;;4954378;29;20510;-79
2023/06/04 01:14:45;;;;;;;6.50;2.50;;;;;;;;;;4920126;28;20063;-78
2023/06/04 01:17:23;;;;;;;5.97;2.53;;;;;;;;;;4936720;29;20049;-78
2023/06/04 01:20:08;;;;;;;4.72;2.10;;;;;;;;;;4954348;29;20034;-77
2023/06/04 01:22:43;;;;;;;4.78;2.30;;;;;;;;;;4936770;29;20094;-79
2023/06/04 01:25:19;;;;;;;5.88;2.80;;;;;;;;;;4954022;29;20106;-79
2023/06/04 01:27:48;;;;;;;8.50;2.60;;;;;;;;;;4953668;29;20082;-78
2023/06/04 01:30:14;;;;;;;8.90;3.50;;;;;;;;;;4936579;29;20082;-78
2023/06/04 01:32:40;;;;;;;6.15;3.08;;;;;;;;;;4948250;28;20031;-78
2023/06/04 01:35:11;;;;;;;6.00;3.22;;;;;;;;;;4936704;29;20027;-77
2023/06/04 01:37:37;;;;;;;6.57;3.15;;;;;;;;;;4954025;29;20035;-78
2023/06/04 01:40:03;;;;;;;5.55;2.95;;;;;;;;;;4953636;29;20094;-78
2023/06/04 01:42:29;;;;;;;5.28;2.75;;;;;;;;;;4936046;29;20027;-78
2023/06/04 01:44:55;;;;;;;8.40;3.88;;;;;;;;;;4935623;29;20023;-78
2023/06/04 01:47:20;;;;;;;4.70;2.50;;;;;;;;;;4935824;29;20042;-79
2023/06/04 01:49:46;;;;;;;6.43;2.85;;;;;;;;;;4916119;29;20027;-78
2023/06/04 01:52:11;;;;;;;7.88;3.10;;;;;;;;;;4917290;29;20118;-79
2023/06/04 01:54:38;;;;;;;8.23;3.00;;;;;;;;;;4917418;29;20119;-79
2023/06/04 01:57:05;;;;;;;8.40;2.97;;;;;;;;;;4934349;29;20516;-79
2023/06/04 01:59:31;;;;;;;5.85;2.67;;;;;;;;;;4917319;29;20405;-79
2023/06/04 02:01:57;;;;;;;6.20;2.70;;;;;;;;;;4916999;29;20103;-78
2023/06/04 02:04:23;;;;;;;6.53;2.50;;;;;;;;;;4917515;28;20063;-78
2023/06/04 02:06:50;;;;;;;5.18;2.60;;;;;;;;;;4916813;29;20031;-79
2023/06/04 02:09:15;;;;;;;7.13;2.33;;;;;;;;;;4901624;29;20042;-76
2023/06/04 02:11:41;;;;;;;6.85;2.85;;;;;;;;;;4886035;29;20505;-79
2023/06/04 02:14:07;;;;;;;5.32;2.35;;;;;;;;;;4905148;29;20036;-77
2023/06/04 02:16:32;;;;;;;5.15;2.70;;;;;;;;;;4904982;29;20047;-78
2023/06/04 02:18:59;;;;;;;6.28;2.42;;;;;;;;;;4937365;29;20110;-78
2023/06/04 02:21:24;;;;;;;5.15;2.67;;;;;;;;;;4913295;29;20031;-78
2023/06/04 02:23:50;;;;;;;6.78;3.15;;;;;;;;;;4908081;29;20098;-77
2023/06/04 02:26:15;;;;;;;6.10;2.78;;;;;;;;;;4939340;29;20508;-78
2023/06/04 02:28:41;;;;;;;6.88;2.72;;;;;;;;;;4941506;29;20114;-78
2023/06/04 02:31:07;;;;;;;6.38;2.20;;;;;;;;;;4923151;29;20102;-78
2023/06/04 02:33:32;;;;;;;4.82;2.22;;;;;;;;;;4939059;29;20035;-78
2023/06/04 02:35:58;;;;;;;8.25;2.45;;;;;;;;;;4938263;28;20122;-77
2023/06/04 02:38:23;;;;;;;5.85;2.70;;;;;;;;;;4921963;29;20040;-78
2023/06/04 02:40:49;;;;;;;4.68;2.38;;;;;;;;;;4938804;29;20105;-79
2023/06/04 02:43:15;;;;;;;8.73;2.58;;;;;;;;;;4939040;29;20035;-78
2023/06/04 02:45:40;;;;;;;4.90;2.17;;;;;;;;;;4955934;29;20038;-78
2023/06/04 02:48:06;;;;;;;5.78;2.63;;;;;;;;;;4956049;29;20031;-76
2023/06/04 02:50:32;;;;;;;5.95;2.20;;;;;;;;;;4956105;29;20380;-78
2023/06/04 02:52:57;;;;;;;5.55;2.38;;;;;;;;;;4936710;29;20023;-78
2023/06/04 02:55:23;;;;;;;5.60;2.70;;;;;;;;;;4955705;29;20377;-76
2023/06/04 02:57:51;;;;;;;6.22;2.80;;;;;;;;;;4938982;29;20046;-78
2023/06/04 03:00:17;;;;;;;12.65;5.45;;;;;;;;;;4956081;29;20039;-78
2023/06/04 03:02:46;;;;;;;11.57;6.35;;;;;;;;;;4956323;29;20547;-76
2023/06/04 03:05:13;;;;;;;16.38;3.42;;;;;;;;;;4956142;29;20031;-77
2023/06/04 03:07:43;;;;;;;6.22;3.42;;;;;;;;;;4938971;29;20042;-77
2023/06/04 03:10:09;;;;;;;4.45;2.47;;;;;;;;;;4937491;29;20244;-76
2023/06/04 03:12:35;;;;;;;5.38;2.20;;;;;;;;;;4955949;29;20038;-78
2023/06/04 03:15:01;;;;;;;3.97;2.35;;;;;;;;;;4957010;29;20035;-77
2023/06/04 03:17:26;;;;;;;8.65;2.33;;;;;;;;;;4956553;29;20027;-77
2023/06/04 03:19:52;;;;;;;6.50;2.10;;;;;;;;;;4939147;29;20042;-76
2023/06/04 03:22:18;;;;;;;5.28;2.28;;;;;;;;;;4956149;28;20508;-77
2023/06/04 03:24:43;;;;;;;5.05;2.38;;;;;;;;;;4938766;29;20039;-78
2023/06/04 03:27:10;;;;;;;5.10;2.47;;;;;;;;;;4937618;29;20374;-77
2023/06/04 03:29:36;;;;;;;4.28;2.15;;;;;;;;;;4939200;29;20032;-78
2023/06/04 03:32:03;;;;;;;8.45;3.03;;;;;;;;;;4939247;29;20027;-78
2023/06/04 03:34:31;;;;;;;7.87;3.20;;;;;;;;;;4924877;29;20032;-78
2023/06/04 03:36:57;;;;;;;5.00;2.40;;;;;;;;;;4956534;29;20046;-77
2023/06/04 03:39:23;;;;;;;11.63;3.33;;;;;;;;;;4938699;29;20042;-77
2023/06/04 03:41:49;;;;;;;5.45;2.33;;;;;;;;;;4937990;29;20061;-78
2023/06/04 03:44:16;;;;;;;5.80;2.67;;;;;;;;;;4936711;29;20088;-77
2023/06/04 03:46:43;;;;;;;5.73;2.63;;;;;;;;;;4938569;29;20058;-77
2023/06/04 03:49:10;;;;;;;5.22;2.22;;;;;;;;;;4956175;29;20477;-77
2023/06/04 03:51:37;;;;;;;6.40;3.00;;;;;;;;;;4955890;29;20023;-78
2023/06/04 03:54:03;;;;;;;6.20;2.70;;;;;;;;;;4939127;29;20035;-78
2023/06/04 03:56:30;;;;;;;8.25;2.30;;;;;;;;;;4924169;29;20519;-77
2023/06/04 03:58:56;;;;;;;6.57;2.33;;;;;;;;;;4956441;29;20485;-78
2023/06/04 04:01:23;;;;;;;5.85;2.53;;;;;;;;;;4919873;28;20036;-77
2023/06/04 04:03:50;;;;;;;7.95;2.60;;;;;;;;;;4907443;29;20093;-78
2023/06/04 04:06:17;;;;;;;8.60;2.30;;;;;;;;;;4938899;29;20497;-78
2023/06/04 04:08:43;;;;;;;6.35;2.50;;;;;;;;;;4923615;29;20031;-78
2023/06/04 04:11:14;;;;;;;7.32;2.20;;;;;;;;;;4940461;29;20030;-78
2023/06/04 04:13:40;;;;;;;6.72;1.80;;;;;;;;;;4940125;29;20031;-78
2023/06/04 04:16:06;;;;;;;4.40;2.20;;;;;;;;;;4940483;29;20058;-79
2023/06/04 04:18:35;;;;;;;5.05;2.10;;;;;;;;;;4939434;29;20027;-79
2023/06/04 04:21:02;;;;;;;8.57;2.38;;;;;;;;;;4937321;29;20035;-78
2023/06/04 04:23:28;;;;;;;5.28;2.13;;;;;;;;;;4939512;29;20031;-79
2023/06/04 04:25:53;;;;;;;4.60;2.13;;;;;;;;;;4946829;29;20031;-79
2023/06/04 04:28:19;;;;;;;5.47;2.40;;;;;;;;;;4947273;29;20087;-79
2023/06/04 04:30:46;;;;;;;5.72;2.03;;;;;;;;;;4951162;29;20031;-79
2023/06/04 04:33:15;;;;;;;5.28;2.20;;;;;;;;;;4931848;29;20452;-79
2023/06/04 04:35:44;;;;;;;6.28;2.15;;;;;;;;;;4918702;29;20055;-77
2023/06/04 04:38:11;;;;;;;7.55;2.47;;;;;;;;;;4937506;29;20044;-79
2023/06/04 04:40:47;;;;;;;7.75;2.38;;;;;;;;;;4935559;29;20058;-78
2023/06/04 04:43:13;;;;;;;4.40;2.10;;;;;;;;;;4935946;29;20492;-76
2023/06/04 04:45:39;;;;;;;6.90;2.20;;;;;;;;;;4918936;29;20496;-76
2023/06/04 04:48:06;;;;;;;5.43;2.40;;;;;;;;;;4903987;29;20028;-78
2023/06/04 04:50:32;;;;;;;4.75;2.28;;;;;;;;;;4918716;29;20469;-78
2023/06/04 04:52:58;;;;;;;7.85;2.20;;;;;;;;;;4934782;29;20027;-76
2023/06/04 04:55:24;;;;;;;5.47;2.35;;;;;;;;;;4937410;29;20023;-77
2023/06/04 04:57:51;;;;;;;6.32;2.20;;;;;;;;;;4936876;29;20412;-76
2023/06/04 05:00:19;;;;;;;5.47;2.33;;;;;;;;;;4921191;29;20138;-77
2023/06/04 05:02:48;;;;;;;5.28;2.10;;;;;;;;;;4921245;29;20467;-76
2023/06/04 05:05:14;;;;;;;5.95;2.60;;;;;;;;;;4937184;29;20058;-79
2023/06/04 05:07:41;;;;;;;5.60;2.30;;;;;;;;;;4937105;29;20042;-79
2023/06/04 05:10:08;;;;;;;6.75;2.10;;;;;;;;;;4919499;29;20027;-77
2023/06/04 05:12:35;;;;;;;5.82;1.80;;;;;;;;;;4953826;29;20511;-77
2023/06/04 05:15:03;;;;;;;7.20;2.38;;;;;;;;;;4937256;29;20042;-79
2023/06/04 05:17:32;;;;;;;4.38;2.08;;;;;;;;;;4953612;29;20026;-75
2023/06/04 05:20:04;;;;;;;5.30;2.15;;;;;;;;;;4953675;29;20035;-77
2023/06/04 05:22:32;;;;;;;5.53;2.88;;;;;;;;;;4920829;29;20157;-77
2023/06/04 05:24:59;;;;;;;6.38;2.15;;;;;;;;;;4936480;29;20046;-76
2023/06/04 05:27:25;;;;;;;4.75;1.83;;;;;;;;;;4918842;29;20118;-76
2023/06/04 05:29:51;;;;;;;4.10;1.85;;;;;;;;;;4936603;29;20468;-78
2023/06/04 05:32:17;;;;;;;4.65;2.17;;;;;;;;;;4936582;29;20102;-76
2023/06/04 05:34:44;;;;;;;3.83;1.70;;;;;;;;;;4936479;29;20031;-77
2023/06/04 05:37:09;;;;;;;7.20;2.72;;;;;;;;;;4920850;29;20039;-77
2023/06/04 05:39:38;;;;;;;4.13;1.80;;;;;;;;;;4936537;29;20500;-78
2023/06/04 05:42:09;;;;;;;3.65;1.65;;;;;;;;;;4920456;29;20567;-77
2023/06/04 05:44:35;;;;;;;6.28;1.70;;;;;;;;;;4928310;29;20032;-78
2023/06/04 05:47:01;;;;;;;3.50;1.58;;;;;;;;;;4936762;29;20031;-78
2023/06/04 05:49:27;;;;;;;2.90;1.48;;;;;;;;;;4889722;29;20028;-77
2023/06/04 05:51:55;;;;;;;4.60;1.83;;;;;;;;;;4920817;29;20489;-77
2023/06/04 05:54:21;;;;;;;3.67;1.88;;;;;;;;;;4937733;29;20270;-77
2023/06/04 05:56:47;;;;;;;6.00;2.08;;;;;;;;;;4920642;29;20035;-77
2023/06/04 05:59:13;;;;;;;5.63;1.92;;;;;;;;;;4920668;28;20378;-79
2023/06/04 06:01:39;;;;;;;4.60;2.10;;;;;;;;;;4955059;29;20032;-76
2023/06/04 06:04:05;;;;;;;5.32;2.10;;;;;;;;;;4939637;29;20433;-77
2023/06/04 06:06:31;;;;;;;4.93;1.88;;;;;;;;;;4939727;29;20047;-78
2023/06/04 06:08:58;;;;;;;5.63;1.92;;;;;;;;;;4956932;29;20401;-78
2023/06/04 06:11:23;;;;;;;2.70;1.50;;;;;;;;;;4956620;29;20027;-77
2023/06/04 06:13:50;;;;;;;3.75;1.55;;;;;;;;;;4939874;29;20031;-78
2023/06/04 06:16:16;;;;;;;4.60;1.52;;;;;;;;;;4936641;29;20020;-78
2023/06/04 06:18:43;;;;;;;5.55;1.60;;;;;;;;;;4938220;29;20551;-77
2023/06/04 06:21:08;;;;;;;5.43;1.58;;;;;;;;;;4956473;29;20031;-77
2023/06/04 06:23:34;;;;;;;3.72;1.90;;;;;;;;;;4923490;29;20133;-77
2023/06/04 06:26:01;;;;;;;4.30;1.63;;;;;;;;;;4923305;29;20039;-78
2023/06/04 06:28:30;;;;;;;2.80;1.33;;;;;;;;;;4923571;29;20027;-77
2023/06/04 06:30:57;;;;;;;5.25;2.67;;;;;;;;;;4938900;29;20023;-77
2023/06/04 06:33:23;;;;;;;3.88;1.60;;;;;;;;;;4921788;28;20496;-77
2023/06/04 06:35:49;;;;;;;5.38;1.50;;;;;;;;;;4923479;29;20032;-78
2023/06/04 06:38:14;;;;;;;4.43;1.63;;;;;;;;;;4935964;29;20032;-78
2023/06/04 06:40:40;;;;;;;8.13;2.03;;;;;;;;;;4923139;29;20166;-78
2023/06/04 06:43:06;;;;;;;4.75;1.40;;;;;;;;;;4938835;29;20447;-78
2023/06/04 06:45:31;;;;;;;3.05;1.40;;;;;;;;;;4939431;29;20035;-77
2023/06/04 06:47:57;;;;;;;4.60;1.60;;;;;;;;;;4956383;29;20035;-77
2023/06/04 06:50:22;;;;;;;3.20;1.48;;;;;;;;;;4938940;29;20035;-77
2023/06/04 06:52:48;;;;;;;6.15;1.60;;;;;;;;;;4937599;29;20024;-78
2023/06/04 06:55:13;;;;;;;6.63;2.03;;;;;;;;;;4956029;29;20412;-78
2023/06/04 06:57:39;;;;;;;4.38;1.90;;;;;;;;;;4922553;29;20035;-77
2023/06/04 07:00:05;;;;;;;5.38;1.40;;;;;;;;;;4956201;29;20035;-77
2023/06/04 07:02:31;;;;;;;3.67;1.60;;;;;;;;;;4938750;29;20086;-78
2023/06/04 07:04:57;;;;;;;5.68;1.80;;;;;;;;;;4907898;29;20073;-77
2023/06/04 07:07:23;;;;;;;3.50;1.45;;;;;;;;;;4956141;29;20035;-78
2023/06/04 07:09:49;;;;;;;3.80;1.33;;;;;;;;;;4937741;29;20031;-79
2023/06/04 07:12:14;;;;;;;4.07;1.70;;;;;;;;;;4938510;29;20488;-77
2023/06/04 07:14:40;;;;;;;3.03;1.23;;;;;;;;;;4955772;29;20027;-77
2023/06/04 07:17:06;;;;;;;4.13;1.33;;;;;;;;;;4955732;29;20064;-78
2023/06/04 07:19:31;;;;;;;2.50;1.35;;;;;;;;;;4922630;29;20039;-77
2023/06/04 07:21:57;;;;;;;4.78;1.60;;;;;;;;;;4955368;29;20408;-78
2023/06/04 07:24:22;;;;;;;3.33;1.30;;;;;;;;;;4938561;29;20039;-78
2023/06/04 07:26:48;;;;;;;5.75;1.58;;;;;;;;;;4937091;29;20027;-77
2023/06/04 07:29:13;;;;;;;3.30;1.50;;;;;;;;;;4937681;29;20121;-77
2023/06/04 07:31:41;;;;;;;5.47;1.60;;;;;;;;;;4953798;28;20023;-78
2023/06/04 07:34:06;;;;;;;3.92;1.50;;;;;;;;;;4955142;29;20031;-78
2023/06/04 07:36:32;;;;;;;2.55;1.20;;;;;;;;;;4923127;29;20170;-78
2023/06/04 07:38:58;;;;;;;5.65;1.33;;;;;;;;;;4922854;29;20110;-80
2023/06/04 07:41:25;;;;;;;3.63;1.15;;;;;;;;;;4962597;29;20078;-76
2023/06/04 07:43:50;;;;;;;3.30;1.52;;;;;;;;;;4966127;29;20082;-79
2023/06/04 07:46:18;;;;;;;3.28;1.38;;;;;;;;;;4950719;29;20027;-77
2023/06/04 07:48:44;;;;;;;4.55;1.38;;;;;;;;;;4962575;29;20043;-79
2023/06/04 07:51:11;;;;;;;2.55;1.30;;;;;;;;;;4928358;29;20047;-77
2023/06/04 07:53:37;;;;;;;3.72;1.13;;;;;;;;;;4954695;29;20118;-80
2023/06/04 07:56:03;;;;;;;2.10;1.05;;;;;;;;;;4937463;29;20114;-80
2023/06/04 07:58:29;;;;;;;6.35;1.30;;;;;;;;;;4920849;29;20047;-77
2023/06/04 08:00:55;;;;;;;3.20;1.10;;;;;;;;;;4954397;29;20046;-78
2023/06/04 08:03:20;;;;;;;2.55;0.70;;;;;;;;;;4954493;29;20042;-78
2023/06/04 08:05:46;;;;;;;2.65;1.10;;;;;;;;;;4937326;29;20163;-78
2023/06/04 08:08:11;;;;;;;3.20;1.30;;;;;;;;;;4937360;29;20034;-78
2023/06/04 08:10:39;;;;;;;5.72;1.17;;;;;;;;;;4953337;28;20030;-76
2023/06/04 08:13:05;;;;;;;1.73;0.90;;;;;;;;;;4954360;29;20035;-78
2023/06/04 08:15:32;;;;;;;2.87;1.20;;;;;;;;;;4921910;29;20500;-78
2023/06/04 08:18:18;;;;;;;4.32;1.00;;;;;;;;;;4927283;29;20273;-76
2023/06/04 08:21:03;;;;;;;3.83;1.08;;;;;;;;;;4913555;29;20098;-78
2023/06/04 08:23:49;;;;;;;3.10;0.98;;;;;;;;;;4940346;29;20047;-75
2023/06/04 08:26:34;;;;;;;2.08;1.10;;;;;;;;;;4954138;29;20039;-78
2023/06/04 08:29:08;;;;;;;2.08;0.80;;;;;;;;;;4922535;29;20404;-76
2023/06/04 08:31:36;;;;;;;3.15;1.05;;;;;;;;;;4954223;29;20110;-78
2023/06/04 08:34:17;;;;;;;4.38;1.00;;;;;;;;;;4954628;29;20055;-79
2023/06/04 08:36:43;;;;;;;2.97;1.30;;;;;;;;;;4938880;29;20485;-78
2023/06/04 08:39:09;;;;;;;3.88;1.00;;;;;;;;;;4956263;29;20035;-76
2023/06/04 08:41:45;;;;;;;4.03;0.98;;;;;;;;;;4921849;29;20500;-78
2023/06/04 08:44:11;;;;;;;3.83;1.70;;;;;;;;;;4937904;29;20094;-77
2023/06/04 08:46:39;;;;;;;3.47;1.30;;;;;;;;;;4937720;29;20492;-76
2023/06/04 08:49:06;;;;;;;2.20;1.00;;;;;;;;;;4954644;29;20110;-77
2023/06/04 08:51:33;;;;;;;2.40;0.90;;;;;;;;;;4937067;29;20027;-77
2023/06/04 08:54:00;;;;;;;3.78;1.15;;;;;;;;;;4921785;29;20092;-78
2023/06/04 08:56:28;;;;;;;4.50;0.90;;;;;;;;;;4954388;29;20065;-77
2023/06/04 08:58:56;;;;;;;3.38;1.08;;;;;;;;;;4954370;29;20042;-78
2023/06/04 09:01:23;;;;;;;;;;;;;;;;;;4957060;29;20031;-76
2023/06/04 09:03:48;;;;;;;1.98;1.00;;;;;;;;;;4938355;29;20020;-78
2023/06/04 09:06:15;;;;;;;7.30;1.20;;;;;;;;;;4957938;29;20050;-78
2023/06/04 09:08:42;;;;;;;2.72;0.90;;;;;;;;;;4955977;29;20035;-78
2023/06/04 09:11:10;;;;;;;4.85;1.40;;;;;;;;;;4955722;29;20031;-77
2023/06/04 09:13:35;;;;;;;6.75;2.75;;;;;;;;;;4953852;29;20114;-78
2023/06/04 09:16:02;;;;;;;3.15;1.20;;;;;;;;;;4936506;29;20512;-78
2023/06/04 09:18:28;;;;;;;2.58;1.00;;;;;;;;;;4936419;29;20042;-77
2023/06/04 09:21:00;;;;;;;2.95;1.10;;;;;;;;;;4921401;29;20400;-77
2023/06/04 09:23:26;;;;;;;2.10;0.90;;;;;;;;;;4957256;29;20035;-78
2023/06/04 09:25:53;;;;;;;2.67;1.10;;;;;;;;;;4940486;29;20440;-77
2023/06/04 09:28:19;;;;;;;2.72;1.05;;;;;;;;;;4957593;29;20075;-77
2023/06/04 09:30:54;;;;;;;3.22;1.20;;;;;;;;;;4924550;29;20509;-77
2023/06/04 09:33:20;;;;;;;2.80;1.40;;;;;;;;;;4957864;29;20114;-78
2023/06/04 09:35:58;;;;;;;3.92;1.17;;;;;;;;;;4940339;29;20479;-78
2023/06/04 09:38:32;;;;;;;3.13;1.13;;;;;;;;;;4957392;29;20481;-78
2023/06/04 09:41:00;;;;;;;3.10;1.00;;;;;;;;;;4939996;29;20459;-78
2023/06/04 09:43:26;;;;;;;1.92;0.95;;;;;;;;;;4957207;29;20032;-78
2023/06/04 09:45:52;;;;;;;3.00;0.90;;;;;;;;;;4957716;29;20496;-78
2023/06/04 09:48:21;;;;;;;2.70;0.98;;;;;;;;;;4940316;29;20038;-78
2023/06/04 09:50:47;;;;;;;2.58;0.93;;;;;;;;;;4939685;29;20122;-78
2023/06/04 09:53:15;;;;;;;;;;;;;;;;;;4940522;29;20551;-78
2023/06/04 09:55:41;;;;;;;1.52;1.00;;;;;;;;;;4940069;29;20013;-78
2023/06/04 09:58:07;;;;;;;4.07;1.20;;;;;;;;;;4939816;29;20031;-78
2023/06/04 10:00:33;;;;;;;3.65;1.00;;;;;;;;;;4939957;29;20043;-78
2023/06/04 10:03:01;;;;;;;6.65;1.60;;;;;;;;;;4939699;29;20027;-77
2023/06/04 10:05:29;;;;;;;2.70;1.13;;;;;;;;;;4939806;29;20116;-78
2023/06/04 10:07:56;;;;;;;1.80;0.93;;;;;;;;;;4939516;29;20027;-78
2023/06/04 10:10:26;;;;;;;3.50;1.05;;;;;;;;;;4939847;29;20377;-79
2023/06/04 10:12:59;;;;;;;5.22;1.15;;;;;;;;;;4958498;29;20042;-79
2023/06/04 10:15:25;;;;;;;6.78;1.25;;;;;;;;;;4941555;29;20087;-78
2023/06/04 10:17:50;;;;;;;3.85;1.20;;;;;;;;;;4957293;29;20496;-79
2023/06/04 10:20:16;;;;;;;3.83;1.10;;;;;;;;;;4939691;29;20353;-78
2023/06/04 10:22:42;;;;;;;2.78;1.10;;;;;;;;;;4956683;29;20113;-77
2023/06/04 10:25:09;;;;;;;3.80;1.30;;;;;;;;;;4956526;29;20058;-78
2023/06/04 10:27:35;;;;;;;5.40;2.05;;;;;;;;;;4939266;29;20039;-77
2023/06/04 10:30:02;;;;;;;3.75;1.20;;;;;;;;;;4939499;29;20507;-78
2023/06/04 10:32:28;;;;;;;4.25;1.33;;;;;;;;;;4955216;28;20114;-78
2023/06/04 10:34:54;;;;;;;5.18;0.93;;;;;;;;;;4939206;29;20151;-77
2023/06/04 10:37:21;;;;;;;3.20;1.40;;;;;;;;;;4939164;29;20087;-76
2023/06/04 10:39:53;;;;;;;2.72;1.00;;;;;;;;;;4956308;29;20035;-77
2023/06/04 10:42:20;;;;;;;2.80;1.05;;;;;;;;;;4923110;29;20042;-77
2023/06/04 10:44:47;;;;;;;3.97;1.45;;;;;;;;;;4923098;29;20042;-77
2023/06/04 10:47:19;;;;;;;1.65;0.90;;;;;;;;;;4922967;29;20039;-78
2023/06/04 10:49:45;;;;;;;5.10;1.00;;;;;;;;;;4939517;29;20043;-77
2023/06/04 10:52:11;;;;;;;5.13;1.10;;;;;;;;;;4955877;29;20406;-78
2023/06/04 10:54:36;;;;;;;2.83;1.02;;;;;;;;;;4923137;29;20102;-76
2023/06/04 10:57:12;;;;;;;4.93;0.88;;;;;;;;;;4938936;29;20039;-78
2023/06/04 10:59:38;;;;;;;5.32;1.40;;;;;;;;;;4956073;29;20031;-76
2023/06/04 11:02:07;;;;;;;2.90;1.00;;;;;;;;;;4956214;29;20031;-78
2023/06/04 11:04:33;;;;;;;2.95;1.20;;;;;;;;;;4907323;29;20135;-77
2023/06/04 11:07:03;;;;;;;5.28;1.40;;;;;;;;;;4939049;29;20110;-77
2023/06/04 11:09:29;;;;;;;2.78;1.13;;;;;;;;;;4923161;29;20036;-77
2023/06/04 11:11:58;;;;;;;3.08;1.10;;;;;;;;;;4955638;29;20077;-77
2023/06/04 11:14:29;;;;;;;3.60;1.20;;;;;;;;;;4939257;29;20035;-77
2023/06/04 11:16:55;;;;;;;3.28;1.10;;;;;;;;;;4938636;29;20383;-77
2023/06/04 11:19:21;;;;;;;2.08;0.88;;;;;;;;;;4956158;29;20216;-78
2023/06/04 11:21:47;;;;;;;4.70;1.08;;;;;;;;;;4956242;29;20040;-77
2023/06/04 11:24:13;;;;;;;3.92;1.10;;;;;;;;;;4939183;29;20035;-77
2023/06/04 11:26:38;;;;;;;1.98;0.95;;;;;;;;;;4955977;29;20035;-77
2023/06/04 11:29:11;;;;;;;2.65;1.10;;;;;;;;;;4923340;29;20035;-77
2023/06/04 11:31:43;;;;;;;3.53;1.48;;;;;;;;;;4955634;29;20077;-76
2023/06/04 11:34:08;;;;;;;9.93;1.85;;;;;;;;;;4938482;29;20527;-77
2023/06/04 11:36:35;;;;;;;3.70;1.50;;;;;;;;;;4923043;29;20039;-76
2023/06/04 11:39:02;;;;;;;3.83;1.25;;;;;;;;;;4923404;29;20031;-78
2023/06/04 11:41:28;;;;;;;3.83;1.30;;;;;;;;;;4938730;29;20102;-78
2023/06/04 11:43:55;;;;;;;3.55;1.20;;;;;;;;;;4906986;29;20035;-77
2023/06/04 11:46:21;;;;;;;6.32;1.20;;;;;;;;;;4907535;29;20142;-77
2023/06/04 11:48:46;;;;;;;3.85;1.30;;;;;;;;;;4939098;29;20046;-76
2023/06/04 11:51:12;;;;;;;2.80;1.50;;;;;;;;;;4938539;29;20034;-78
2023/06/04 11:53:38;;;;;;;2.15;0.98;;;;;;;;;;4955979;29;20020;-78
2023/06/04 11:56:04;;;;;;;7.63;1.20;;;;;;;;;;4955584;29;20035;-77
2023/06/04 11:58:30;;;;;;;2.85;1.10;;;;;;;;;;4937850;29;20035;-78
2023/06/04 12:00:57;;;;;;;2.65;1.20;;;;;;;;;;4937635;29;20048;-79
2023/06/04 12:03:39;;;;;;;4.55;1.42;;;;;;;;;;4937425;29;20031;-78
2023/06/04 12:06:10;;;;;;;3.97;1.60;;;;;;;;;;4955276;29;20043;-75
2023/06/04 12:08:44;;;;;;;3.50;1.50;;;;;;;;;;4937962;29;20110;-78
2023/06/04 12:11:10;;;;;;;4.65;1.52;;;;;;;;;;4954675;29;20028;-78
2023/06/04 12:13:37;;;;;;;7.88;1.60;;;;;;;;;;4937386;29;20051;-78
2023/06/04 12:16:03;;;;;;;3.45;1.50;;;;;;;;;;4969948;23;20089;-80
2023/06/04 12:18:28;;;;;;;3.90;1.10;;;;;;;;;;4956514;28;20445;-80
2023/06/04 12:20:54;;;;;;;2.40;1.15;;;;;;;;;;4942926;28;20130;-79
2023/06/04 12:23:20;;;;;;;4.15;1.30;;;;;;;;;;4973764;28;20027;-80
2023/06/04 12:25:50;;;;;;;6.45;1.33;;;;;;;;;;4940289;28;20118;-80
2023/06/04 12:28:19;;;;;;;1.80;1.15;;;;;;;;;;4956266;28;20023;-82
2023/06/04 12:30:44;;;;;;;4.90;1.70;;;;;;;;;;4956020;28;20030;-82
2023/06/04 12:33:12;;;;;;;1.42;0.93;;;;;;;;;;4956322;28;20027;-82
2023/06/04 12:35:37;;;;;;;3.08;1.00;;;;;;;;;;4973671;28;20034;-82
2023/06/04 12:38:04;;;;;;;2.78;1.15;;;;;;;;;;4973594;28;20512;-80
2023/06/04 12:40:30;;;;;;;4.78;1.23;;;;;;;;;;4973497;28;20039;-80
2023/06/04 12:42:56;;;;;;;2.55;1.02;;;;;;;;;;4956086;28;20400;-82
2023/06/04 12:45:21;;;;;;;3.90;1.38;;;;;;;;;;4956517;28;20411;-81
2023/06/04 12:47:47;;;;;;;2.13;1.08;;;;;;;;;;4974141;28;20035;-82
2023/06/04 12:50:13;;;;;;;3.17;1.38;;;;;;;;;;4975513;28;20053;-82
2023/06/04 12:52:38;;;;;;;2.33;1.17;;;;;;;;;;4966996;28;20107;-81
2023/06/04 12:55:05;;;;;;;2.15;0.93;;;;;;;;;;4952635;28;20058;-81
2023/06/04 12:57:31;;;;;;;3.58;1.13;;;;;;;;;;4967342;28;20047;-80
2023/06/04 12:59:57;;;;;;;8.07;1.92;;;;;;;;;;4965348;28;20103;-81
2023/06/04 13:02:22;;;;;;;2.58;1.30;;;;;;;;;;4983018;28;20030;-79
2023/06/04 13:04:52;;;;;;;3.28;1.30;;;;;;;;;;4964910;28;20046;-81
2023/06/04 13:07:18;;;;;;;2.30;1.10;;;;;;;;;;4980738;28;20041;-82
2023/06/04 13:09:44;;;;;;;2.47;1.10;;;;;;;;;;4977490;28;20455;-80
2023/06/04 13:12:09;;;;;;;3.67;1.70;;;;;;;;;;4973735;28;20507;-81
2023/06/04 13:14:35;;;;;;;4.32;1.77;;;;;;;;;;4972822;28;20031;-81
2023/06/04 13:17:00;;;;;;;2.90;1.25;;;;;;;;;;4974599;28;20026;-83
2023/06/04 13:19:26;;;;;;;2.47;1.30;;;;;;;;;;4989544;28;20090;-82
2023/06/04 13:21:52;;;;;;;3.08;1.25;;;;;;;;;;4957132;28;20035;-79
2023/06/04 13:24:17;;;;;;;2.00;1.20;;;;;;;;;;4988742;28;20053;-79
2023/06/04 13:26:46;;;;;;;5.43;1.40;;;;;;;;;;4974307;28;20041;-81
2023/06/04 13:29:12;;;;;;;2.95;1.30;;;;;;;;;;4976477;28;20061;-79
2023/06/04 13:31:39;;;;;;;1.88;1.10;;;;;;;;;;4971378;28;20027;-80
2023/06/04 13:34:04;;;;;;;5.43;1.90;;;;;;;;;;4970522;28;20110;-80
2023/06/04 13:36:30;;;;;;;2.28;1.15;;;;;;;;;;4971134;28;20693;-83
2023/06/04 13:38:55;;;;;;;3.25;1.00;;;;;;;;;;4969644;28;20570;-79
2023/06/04 13:41:21;;;;;;;2.72;1.10;;;;;;;;;;4973694;28;20465;-81
2023/06/04 13:43:46;;;;;;;1.85;1.00;;;;;;;;;;4940264;28;20547;-80
2023/06/04 13:46:12;;;;;;;8.27;1.73;;;;;;;;;;4975408;28;20118;-82
2023/06/04 13:48:37;;;;;;;4.88;1.10;;;;;;;;;;4978260;28;20038;-82
2023/06/04 13:51:03;;;;;;;3.30;1.40;;;;;;;;;;4974625;28;20026;-80
2023/06/04 13:53:28;;;;;;;5.95;1.42;;;;;;;;;;4956638;28;20039;-82
2023/06/04 13:55:57;;;;;;;2.13;1.10;;;;;;;;;;4940647;28;20031;-81
2023/06/04 13:58:24;;;;;;;3.42;1.40;;;;;;;;;;4956509;28;20027;-81
2023/06/04 14:00:50;;;;;;;2.47;1.13;;;;;;;;;;4973446;28;20022;-80
2023/06/04 14:03:15;;;;;;;4.47;1.60;;;;;;;;;;4972727;28;20516;-81
2023/06/04 14:05:41;;;;;;;7.20;1.70;;;;;;;;;;4955205;28;20031;-80
2023/06/04 14:08:06;;;;;;;2.05;1.00;;;;;;;;;;4957927;28;20399;-81
2023/06/04 14:10:32;;;;;;;3.88;1.30;;;;;;;;;;4976046;28;20030;-81
2023/06/04 14:12:58;;;;;;;2.90;1.20;;;;;;;;;;4976687;28;20023;-81
2023/06/04 14:15:23;;;;;;;2.60;1.00;;;;;;;;;;4976448;28;20038;-80
2023/06/04 14:17:49;;;;;;;2.22;1.20;;;;;;;;;;4976375;28;20027;-81
2023/06/04 14:20:15;;;;;;;2.97;1.48;;;;;;;;;;4943494;28;20432;-81
2023/06/04 14:22:40;;;;;;;3.70;1.40;;;;;;;;;;4959400;28;20030;-82
2023/06/04 14:25:06;;;;;;;4.28;1.33;;;;;;;;;;4960375;28;20223;-80
2023/06/04 14:27:32;;;;;;;3.75;1.30;;;;;;;;;;4960548;28;20448;-81
2023/06/04 14:29:58;;;;;;;1.83;0.85;;;;;;;;;;4947387;28;20061;-80
2023/06/04 14:32:23;;;;;;;2.42;1.08;;;;;;;;;;4966430;28;20559;-82
2023/06/04 14:34:49;;;;;;;3.45;1.27;;;;;;;;;;4964605;28;20030;-80
2023/06/04 14:37:15;;;;;;;4.85;1.10;;;;;;;;;;4983158;28;20102;-80
2023/06/04 14:39:40;;;;;;;2.90;1.10;;;;;;;;;;4987635;28;20039;-81
2023/06/04 14:42:06;;;;;;;4.57;1.10;;;;;;;;;;4951197;28;20488;-81
2023/06/04 14:44:31;;;;;;;3.13;1.20;;;;;;;;;;4979111;28;20031;-81
2023/06/04 14:46:58;;;;;;;2.42;1.00;;;;;;;;;;4979380;28;20031;-82
2023/06/04 14:49:23;;;;;;;4.40;1.50;;;;;;;;;;4982117;28;20062;-80